createdAt,value
2022-08-07T00:02:40.717Z,13.62
2022-08-07T00:05:25.124Z,13.62
2022-08-07T00:07:59.821Z,13.57
2022-08-07T00:10:30.843Z,13.43
2022-08-07T00:13:25.838Z,13.46
2022-08-07T00:15:55.916Z,13.59
2022-08-07T00:18:50.793Z,13.60
2022-08-07T00:21:57.027Z,13.62
2022-08-07T00:24:07.523Z,13.61
2022-08-07T00:27:07.424Z,13.57
2022-08-07T00:29:37.074Z,13.46
2022-08-07T00:32:13.554Z,13.52
2022-08-07T00:34:42.016Z,13.52
2022-08-07T00:37:11.216Z,13.54
2022-08-07T00:39:45.209Z,13.54
2022-08-07T00:42:47.348Z,13.51
2022-08-07T00:45:22.944Z,13.40
2022-08-07T00:48:08.966Z,13.25
2022-08-07T00:50:50.694Z,13.25
2022-08-07T00:53:23.850Z,13.14
2022-08-07T00:56:00.470Z,13.12
2022-08-07T00:58:57.833Z,13.15
2022-08-07T01:01:30.047Z,13.18
2022-08-07T01:04:43.004Z,12.99
2022-08-07T01:07:13.144Z,13.13
2022-08-07T01:10:07.038Z,13.12
2022-08-07T01:12:55.297Z,13.13
2022-08-07T01:16:00.531Z,13.11
2022-08-07T01:18:16.952Z,12.97
2022-08-07T01:21:22.487Z,13.08
2022-08-07T01:24:18.651Z,13.12
2022-08-07T01:27:19.615Z,13.16
2022-08-07T01:30:02.448Z,13.09
2022-08-07T01:32:56.488Z,13.03
2022-08-07T01:35:36.991Z,13.02
2022-08-07T01:38:41.576Z,13.03
2022-08-07T01:41:25.821Z,13.04
2022-08-07T01:43:56.869Z,13.01
2022-08-07T01:46:26.670Z,13.02
2022-08-07T01:49:21.421Z,12.98
2022-08-07T01:52:17.729Z,13.00
2022-08-07T01:55:22.287Z,13.01
2022-08-07T01:58:05.833Z,12.97
2022-08-07T02:00:58.056Z,12.90
2022-08-07T02:04:09.311Z,12.89
2022-08-07T02:06:43.313Z,12.89
2022-08-07T02:09:52.429Z,12.93
2022-08-07T02:12:36.385Z,12.94
2022-08-07T02:15:31.588Z,12.91
2022-08-07T02:18:10.480Z,12.90
2022-08-07T02:20:42.794Z,12.94
2022-08-07T02:23:23.793Z,12.95
2022-08-07T02:26:33.876Z,12.85
2022-08-07T02:29:28.977Z,12.92
2022-08-07T02:32:02.681Z,12.89
2022-08-07T02:34:34.045Z,12.85
2022-08-07T02:37:08.232Z,12.82
2022-08-07T02:40:01.628Z,12.78
2022-08-07T02:42:57.421Z,12.79
2022-08-07T02:46:00.962Z,12.72
2022-08-07T02:48:54.715Z,12.65
2022-08-07T02:51:41.845Z,12.63
2022-08-07T02:54:15.368Z,12.60
2022-08-07T02:56:48.117Z,12.59
2022-08-07T02:59:24.200Z,12.58
2022-08-07T03:02:02.201Z,12.60
2022-08-07T03:04:32.176Z,12.47
2022-08-07T03:08:04.679Z,12.52
2022-08-07T03:10:18.003Z,12.54
2022-08-07T03:13:19.306Z,12.57
2022-08-07T03:15:55.580Z,12.52
2022-08-07T03:18:34.519Z,12.57
2022-08-07T03:21:08.264Z,12.46
2022-08-07T03:24:17.864Z,12.46
2022-08-07T03:26:32.107Z,12.34
2022-08-07T03:29:37.555Z,12.43
2022-08-07T03:32:13.059Z,12.37
2022-08-07T03:34:47.472Z,12.24
2022-08-07T03:38:04.784Z,12.26
2022-08-07T03:40:36.537Z,12.33
2022-08-07T03:43:36.056Z,12.31
2022-08-07T03:46:18.268Z,12.45
2022-08-07T03:49:14.440Z,12.52
2022-08-07T03:52:22.886Z,12.54
2022-08-07T03:55:07.295Z,12.44
2022-08-07T03:58:34.913Z,12.57
2022-08-07T04:00:59.422Z,12.61
2022-08-07T04:03:29.636Z,12.62
2022-08-07T04:06:37.926Z,12.63
2022-08-07T04:09:45.488Z,12.66
2022-08-07T04:12:28.898Z,12.70
2022-08-07T04:15:00.153Z,12.72
2022-08-07T04:18:31.128Z,12.76
2022-08-07T04:20:20.146Z,12.82
2022-08-07T04:22:53.585Z,12.87
2022-08-07T04:25:54.803Z,12.91
2022-08-07T04:28:27.142Z,12.95
2022-08-07T04:30:58.595Z,12.99
2022-08-07T04:33:35.276Z,13.01
2022-08-07T04:36:06.376Z,13.06
2022-08-07T04:39:01.307Z,13.13
2022-08-07T04:41:30.953Z,13.23
2022-08-07T04:44:14.602Z,13.24
2022-08-07T04:47:04.813Z,13.30
2022-08-07T04:49:47.594Z,13.35
2022-08-07T04:53:27.822Z,13.40
2022-08-07T04:58:12.229Z,13.44
2022-08-07T05:00:12.875Z,13.52
2022-08-07T05:03:03.553Z,13.61
2022-08-07T05:05:57.564Z,13.69
2022-08-07T05:09:01.049Z,13.75
2022-08-07T05:11:56.993Z,13.84
2022-08-07T05:14:59.211Z,13.86
2022-08-07T05:18:13.289Z,13.89
2022-08-07T05:20:50.172Z,13.98
2022-08-07T05:23:52.002Z,14.08
2022-08-07T05:26:24.250Z,14.15
2022-08-07T05:29:25.694Z,14.22
2022-08-07T05:32:08.852Z,14.35
2022-08-07T05:34:38.225Z,14.46
2022-08-07T05:37:13.906Z,14.54
2022-08-07T05:40:17.291Z,14.63
2022-08-07T05:43:13.629Z,14.72
2022-08-07T05:45:46.988Z,14.78
2022-08-07T05:48:26.369Z,14.84
2022-08-07T05:51:01.591Z,14.90
2022-08-07T05:54:14.069Z,14.96
2022-08-07T05:56:47.289Z,14.96
2022-08-07T05:59:22.505Z,15.00
2022-08-07T06:02:22.597Z,15.05
2022-08-07T06:05:15.392Z,15.12
2022-08-07T06:08:13.406Z,15.08
2022-08-07T06:10:37.562Z,15.30
2022-08-07T06:14:12.788Z,15.36
2022-08-07T06:16:22.822Z,15.45
2022-08-07T06:19:51.775Z,15.53
2022-08-07T06:22:20.707Z,15.68
2022-08-07T06:25:18.861Z,15.77
2022-08-07T06:28:01.157Z,15.78
2022-08-07T06:30:37.971Z,15.84
2022-08-07T06:33:38.570Z,15.92
2022-08-07T06:36:13.916Z,16.03
2022-08-07T06:40:13.487Z,16.14
2022-08-07T06:42:35.073Z,16.15
2022-08-07T06:45:37.609Z,16.29
2022-08-07T06:48:31.389Z,16.43
2022-08-07T06:51:31.178Z,16.45
2022-08-07T06:55:29.149Z,16.53
2022-08-07T06:57:39.393Z,16.63
2022-08-07T07:00:17.865Z,16.72
2022-08-07T07:02:53.875Z,16.82
2022-08-07T07:06:03.226Z,16.90
2022-08-07T07:08:18.721Z,16.91
2022-08-07T07:10:56.787Z,17.02
2022-08-07T07:13:57.402Z,17.08
2022-08-07T07:16:58.814Z,17.18
2022-08-07T07:19:57.708Z,17.25
2022-08-07T07:22:36.262Z,17.52
2022-08-07T07:26:30.903Z,17.67
2022-08-07T07:28:42.167Z,17.77
2022-08-07T07:31:04.832Z,17.86
2022-08-07T07:33:38.473Z,17.94
2022-08-07T07:36:13.317Z,18.05
2022-08-07T07:38:49.412Z,18.17
2022-08-07T07:41:24.656Z,18.32
2022-08-07T07:44:21.382Z,18.47
2022-08-07T07:47:04.302Z,18.61
2022-08-07T07:50:34.753Z,18.82
2022-08-07T07:52:36.589Z,19.06
2022-08-07T07:55:07.940Z,19.27
2022-08-07T07:57:51.862Z,19.38
2022-08-07T08:00:31.568Z,19.50
2022-08-07T08:03:17.021Z,19.84
2022-08-07T08:06:01.633Z,20.06
2022-08-07T08:08:36.880Z,20.17
2022-08-07T08:11:16.392Z,20.23
2022-08-07T08:13:58.764Z,20.37
2022-08-07T08:16:35.141Z,20.42
2022-08-07T08:19:18.187Z,20.38
2022-08-07T08:22:17.356Z,20.24
2022-08-07T08:25:25.119Z,20.22
2022-08-07T08:28:04.147Z,20.09
2022-08-07T08:30:34.605Z,20.32
2022-08-07T08:33:05.520Z,20.45
2022-08-07T08:35:49.651Z,20.66
2022-08-07T08:38:25.886Z,20.83
2022-08-07T08:41:05.627Z,20.76
2022-08-07T08:43:59.175Z,20.81
2022-08-07T08:46:49.552Z,20.81
2022-08-07T08:49:33.313Z,20.68
2022-08-07T08:52:17.184Z,20.45
2022-08-07T08:54:50.323Z,20.22
2022-08-07T08:57:35.228Z,20.12
2022-08-07T09:00:12.314Z,20.12
2022-08-07T09:03:00.877Z,20.17
2022-08-07T09:05:53.384Z,20.38
2022-08-07T09:08:58.063Z,20.65
2022-08-07T09:11:50.646Z,21.04
2022-08-07T09:14:42.422Z,21.32
2022-08-07T09:17:58.460Z,21.23
2022-08-07T09:20:35.607Z,21.01
2022-08-07T09:24:32.305Z,21.29
2022-08-07T09:26:22.077Z,21.67
2022-08-07T09:30:02.115Z,21.97
2022-08-07T09:32:17.175Z,22.17
2022-08-07T09:36:01.205Z,22.01
2022-08-07T09:38:01.129Z,22.30
2022-08-07T09:41:08.740Z,22.76
2022-08-07T09:44:06.708Z,23.25
2022-08-07T09:47:51.238Z,23.73
2022-08-07T09:50:26.677Z,24.19
2022-08-07T09:53:07.554Z,24.51
2022-08-07T09:56:07.480Z,25.06
2022-08-07T09:59:07.822Z,25.53
2022-08-07T10:01:54.318Z,25.14
2022-08-07T10:04:32.755Z,25.38
2022-08-07T10:07:24.331Z,25.80
2022-08-07T10:10:24.463Z,26.15
2022-08-07T10:13:55.236Z,26.78
2022-08-07T10:16:29.401Z,27.02
2022-08-07T10:19:01.397Z,26.32
2022-08-07T10:22:15.811Z,25.86
2022-08-07T10:25:09.325Z,25.73
2022-08-07T10:28:00.035Z,24.95
2022-08-07T10:30:43.631Z,24.25
2022-08-07T10:34:06.112Z,23.85
2022-08-07T10:36:43.198Z,23.46
2022-08-07T10:39:25.697Z,23.28
2022-08-07T10:42:31.396Z,23.31
2022-08-07T10:45:13.926Z,23.17
2022-08-07T10:48:35.100Z,23.11
2022-08-07T10:51:16.719Z,23.01
2022-08-07T10:54:17.808Z,23.48
2022-08-07T10:57:07.702Z,24.06
2022-08-07T11:00:04.690Z,23.97
2022-08-07T11:02:38.053Z,23.73
2022-08-07T11:05:19.237Z,24.20
2022-08-07T11:08:18.458Z,25.08
2022-08-07T11:11:01.434Z,26.08
2022-08-07T11:14:44.241Z,26.14
2022-08-07T11:16:52.765Z,26.40
2022-08-07T11:19:37.151Z,25.93
2022-08-07T11:22:26.468Z,25.35
2022-08-07T11:25:11.846Z,25.62
2022-08-07T11:28:09.369Z,25.93
2022-08-07T11:31:08.792Z,25.88
2022-08-07T11:33:58.593Z,25.91
2022-08-07T11:36:40.143Z,25.80
2022-08-07T11:39:59.197Z,25.84
2022-08-07T11:42:53.367Z,25.86
2022-08-07T11:45:33.264Z,26.18
2022-08-07T11:48:29.441Z,26.43
2022-08-07T11:51:41.331Z,26.71
2022-08-07T11:54:54.933Z,27.13
2022-08-07T11:58:00.525Z,27.15
2022-08-07T12:01:00.093Z,26.28
2022-08-07T12:04:03.429Z,26.57
2022-08-07T12:06:57.206Z,27.18
2022-08-07T12:09:35.966Z,27.59
2022-08-07T12:12:12.463Z,27.51
2022-08-07T12:15:00.262Z,26.52
2022-08-07T12:17:37.470Z,26.23
2022-08-07T12:20:14.021Z,25.92
2022-08-07T12:23:09.091Z,25.98
2022-08-07T12:26:03.053Z,26.53
2022-08-07T12:28:53.217Z,27.11
2022-08-07T12:32:02.090Z,27.29
2022-08-07T12:34:39.034Z,26.73
2022-08-07T12:37:16.995Z,26.07
2022-08-07T12:39:59.236Z,25.91
2022-08-07T12:42:32.170Z,25.93
2022-08-07T12:45:12.200Z,26.09
2022-08-07T12:48:13.150Z,26.41
2022-08-07T12:51:17.399Z,26.49
2022-08-07T12:54:02.665Z,26.72
2022-08-07T12:56:54.987Z,26.76
2022-08-07T12:59:53.819Z,26.81
2022-08-07T13:02:54.171Z,26.91
2022-08-07T13:06:03.703Z,26.90
2022-08-07T13:10:20.147Z,25.86
2022-08-07T13:12:32.110Z,24.87
2022-08-07T13:15:23.480Z,24.55
2022-08-07T13:18:10.327Z,24.31
2022-08-07T13:21:05.279Z,24.69
2022-08-07T13:24:00.788Z,25.17
2022-08-07T13:26:39.870Z,25.28
2022-08-07T13:29:15.753Z,25.49
2022-08-07T13:32:06.411Z,25.48
2022-08-07T13:35:00.026Z,25.64
2022-08-07T13:37:59.007Z,25.79
2022-08-07T13:40:42.776Z,25.86
2022-08-07T13:43:15.453Z,25.77
2022-08-07T13:46:11.576Z,25.78
2022-08-07T13:48:38.618Z,26.08
2022-08-07T13:51:27.397Z,26.26
2022-08-07T13:54:05.017Z,26.30
2022-08-07T13:56:41.202Z,25.97
2022-08-07T13:59:24.632Z,25.81
2022-08-07T14:02:10.488Z,26.00
2022-08-07T14:04:54.630Z,26.33
2022-08-07T14:07:27.908Z,26.55
2022-08-07T14:10:01.230Z,26.79
2022-08-07T14:12:54.861Z,26.87
2022-08-07T14:15:31.695Z,26.97
2022-08-07T14:18:24.041Z,26.85
2022-08-07T14:21:11.865Z,26.84
2022-08-07T14:24:09.350Z,26.84
2022-08-07T14:26:51.523Z,26.71
2022-08-07T14:30:09.308Z,26.51
2022-08-07T14:32:15.410Z,26.63
2022-08-07T14:34:47.308Z,26.91
2022-08-07T14:37:19.634Z,27.27
2022-08-07T14:40:18.233Z,27.28
2022-08-07T14:45:50.219Z,27.36
2022-08-07T14:51:16.202Z,27.93
2022-08-07T14:54:05.739Z,28.07
2022-08-07T14:56:40.543Z,28.05
2022-08-07T14:59:13.898Z,27.96
2022-08-07T15:02:34.098Z,27.78
2022-08-07T15:05:01.929Z,27.96
2022-08-07T15:07:51.412Z,28.06
2022-08-07T15:10:26.469Z,28.28
2022-08-07T15:13:01.213Z,28.25
2022-08-07T15:15:42.160Z,28.20
2022-08-07T15:25:12.961Z,27.98
2022-08-07T15:27:07.106Z,28.01
2022-08-07T15:30:04.745Z,27.85
2022-08-07T15:32:39.623Z,27.84
2022-08-07T15:36:00.857Z,27.95
2022-08-07T15:38:30.342Z,27.80
2022-08-07T15:44:00.822Z,27.47
2022-08-07T15:46:38.498Z,27.51
2022-08-07T15:49:25.470Z,27.68
2022-08-07T15:52:14.013Z,27.60
2022-08-07T15:54:49.042Z,27.39
2022-08-07T15:57:27.877Z,27.20
2022-08-07T16:00:09.653Z,26.92
2022-08-07T16:03:01.475Z,26.93
2022-08-07T16:05:31.292Z,26.79
2022-08-07T16:08:38.555Z,26.63
2022-08-07T16:11:26.915Z,26.67
2022-08-07T16:14:06.047Z,26.43
2022-08-07T16:16:51.324Z,26.20
2022-08-07T16:19:42.196Z,26.01
2022-08-07T16:22:33.674Z,25.90
2022-08-07T16:25:22.991Z,25.41
2022-08-07T16:29:18.787Z,24.70
2022-08-07T16:32:06.153Z,23.99
2022-08-07T16:34:45.504Z,23.32
2022-08-07T16:38:04.284Z,22.95
2022-08-07T16:41:07.137Z,22.65
2022-08-07T16:44:47.212Z,22.37
2022-08-07T16:47:50.913Z,22.01
2022-08-07T16:50:36.321Z,21.79
2022-08-07T16:54:01.508Z,21.56
2022-08-07T16:56:10.689Z,21.34
2022-08-07T16:59:14.466Z,21.10
2022-08-07T17:01:49.765Z,20.96
2022-08-07T17:04:24.504Z,20.93
2022-08-07T17:07:04.671Z,20.87
2022-08-07T17:10:07.929Z,20.75
2022-08-07T17:12:43.626Z,20.59
2022-08-07T17:15:15.746Z,20.46
2022-08-07T17:17:47.599Z,20.38
2022-08-07T17:20:29.697Z,20.30
2022-08-07T17:23:17.437Z,20.15
2022-08-07T17:26:00.954Z,20.05
2022-08-07T17:28:53.533Z,19.92
2022-08-07T17:31:34.608Z,19.80
2022-08-07T17:34:35.053Z,19.70
2022-08-07T17:38:05.017Z,19.62
2022-08-07T17:40:10.850Z,19.53
2022-08-07T17:42:58.567Z,19.50
2022-08-07T17:45:35.296Z,19.46
2022-08-07T17:48:12.635Z,19.44
2022-08-07T17:51:02.512Z,19.36
2022-08-07T17:54:01.293Z,19.38
2022-08-07T17:56:35.345Z,19.35
2022-08-07T17:59:17.177Z,19.32
2022-08-07T18:01:56.923Z,19.20
2022-08-07T18:04:41.239Z,19.23
2022-08-07T18:07:22.492Z,19.14
2022-08-07T18:12:07.876Z,19.06
2022-08-07T18:14:03.717Z,19.00
2022-08-07T18:16:58.527Z,18.99
2022-08-07T18:21:12.716Z,18.94
2022-08-07T18:22:53.071Z,18.88
2022-08-07T18:25:40.135Z,18.83
2022-08-07T18:28:33.961Z,18.76
2022-08-07T18:31:11.468Z,18.72
2022-08-07T18:34:37.159Z,18.70
2022-08-07T18:38:55.690Z,18.64
2022-08-07T18:40:42.343Z,18.57
2022-08-07T18:43:37.109Z,18.53
2022-08-07T18:46:33.145Z,18.48
2022-08-07T18:50:29.843Z,18.46
2022-08-07T18:52:53.557Z,18.43
2022-08-07T18:55:43.212Z,18.42
2022-08-07T18:58:22.513Z,18.35
2022-08-07T19:01:02.547Z,18.30
2022-08-07T19:03:49.505Z,18.19
2022-08-07T19:06:33.683Z,18.09
2022-08-07T19:09:55.902Z,17.97
2022-08-07T19:12:19.685Z,17.87
2022-08-07T19:15:01.537Z,17.85
2022-08-07T19:18:02.846Z,17.83
2022-08-07T19:21:09.060Z,17.81
2022-08-07T19:23:58.328Z,17.79
2022-08-07T19:28:28.331Z,17.78
2022-08-07T19:31:05.681Z,17.76
2022-08-07T19:32:26.449Z,17.75
2022-08-07T19:35:07.941Z,17.72
2022-08-07T19:37:56.918Z,17.71
2022-08-07T19:40:31.091Z,17.71
2022-08-07T19:43:10.603Z,17.67
2022-08-07T19:46:06.231Z,17.66
2022-08-07T19:48:55.312Z,17.66
2022-08-07T19:51:52.184Z,17.68
2022-08-07T19:54:33.484Z,17.70
2022-08-07T19:58:03.626Z,17.72
2022-08-07T20:00:11.000Z,17.73
2022-08-07T20:02:55.953Z,17.68
2022-08-07T20:05:28.883Z,17.65
2022-08-07T20:08:01.319Z,17.63
2022-08-07T20:10:54.462Z,17.59
2022-08-07T20:13:33.135Z,17.53
2022-08-07T20:16:04.667Z,17.47
2022-08-07T20:18:35.040Z,17.41
2022-08-07T20:21:21.989Z,17.36
2022-08-07T20:24:00.453Z,17.36
2022-08-07T20:26:32.724Z,17.36
2022-08-07T20:29:46.711Z,17.34
2022-08-07T20:32:02.858Z,17.31
2022-08-07T20:34:50.270Z,17.27
2022-08-07T20:37:29.707Z,17.21
2022-08-07T20:40:33.025Z,17.14
2022-08-07T20:42:59.123Z,17.13
2022-08-07T20:45:32.803Z,17.11
2022-08-07T20:48:29.726Z,17.08
2022-08-07T20:51:09.423Z,17.09
2022-08-07T20:54:02.196Z,17.09
2022-08-07T20:56:32.318Z,17.09
2022-08-07T20:59:06.132Z,17.09
2022-08-07T21:01:58.567Z,17.00
2022-08-07T21:04:30.594Z,16.82
2022-08-07T21:07:04.457Z,16.67
2022-08-07T21:09:52.500Z,16.50
2022-08-07T21:12:31.906Z,16.58
2022-08-07T21:15:05.524Z,16.56
2022-08-07T21:18:01.876Z,16.55
2022-08-07T21:20:30.498Z,16.53
2022-08-07T21:23:08.773Z,16.53
2022-08-07T21:25:56.847Z,16.51
2022-08-07T21:28:58.989Z,16.52
2022-08-07T21:32:42.653Z,16.47
2022-08-07T21:34:32.927Z,16.41
2022-08-07T21:37:11.575Z,16.37
2022-08-07T21:39:54.904Z,16.27
2022-08-07T21:42:51.170Z,16.31
2022-08-07T21:46:10.941Z,16.10
2022-08-07T21:48:28.681Z,16.02
2022-08-07T21:51:32.197Z,16.07
2022-08-07T21:54:18.718Z,16.02
2022-08-07T21:57:16.143Z,15.97
2022-08-07T22:00:25.215Z,16.00
2022-08-07T22:03:30.990Z,16.00
2022-08-07T22:06:30.780Z,16.01
2022-08-07T22:09:08.196Z,16.03
2022-08-07T22:12:05.086Z,16.03
2022-08-07T22:14:59.712Z,16.07
2022-08-07T22:17:45.153Z,16.08
2022-08-07T22:20:25.948Z,16.06
2022-08-07T22:23:31.704Z,16.02
2022-08-07T22:26:51.696Z,15.94
2022-08-07T22:29:33.797Z,15.89
2022-08-07T22:32:20.258Z,15.86
2022-08-07T22:34:57.590Z,15.83
2022-08-07T22:38:04.225Z,15.82
2022-08-07T22:40:49.702Z,15.78
2022-08-07T22:43:34.084Z,15.73
2022-08-07T22:46:46.987Z,15.69
2022-08-07T22:49:27.631Z,15.66
2022-08-07T22:52:37.348Z,15.68
2022-08-07T22:55:30.071Z,15.68
2022-08-07T22:58:11.775Z,15.67
2022-08-07T23:01:16.781Z,15.65
2022-08-07T23:04:16.502Z,15.64
2022-08-07T23:07:25.812Z,15.64
2022-08-07T23:10:37.777Z,15.61
2022-08-07T23:13:11.122Z,15.60
2022-08-07T23:16:07.027Z,15.61
2022-08-07T23:19:47.765Z,15.62
2022-08-07T23:23:10.040Z,15.57
2022-08-07T23:25:59.013Z,15.56
2022-08-07T23:28:53.418Z,15.54
2022-08-07T23:32:48.960Z,15.41
2022-08-07T23:35:03.434Z,15.44
2022-08-07T23:38:01.432Z,15.38
2022-08-07T23:40:49.441Z,15.51
2022-08-07T23:43:37.685Z,15.58
2022-08-07T23:46:28.228Z,15.62
2022-08-07T23:49:15.622Z,15.68
2022-08-07T23:53:01.972Z,15.71
2022-08-07T23:54:59.982Z,15.74
2022-08-07T23:57:41.085Z,15.76
